createdAt,value
2022-09-10T00:01:22.881Z,96506.06
2022-09-10T00:03:51.529Z,96502.41
2022-09-10T00:06:20.150Z,96491.50
2022-09-10T00:08:49.272Z,96495.97
2022-09-10T00:11:17.329Z,96484.22
2022-09-10T00:13:45.585Z,96489.56
2022-09-10T00:16:16.749Z,96485.91
2022-09-10T00:18:44.809Z,96479.59
2022-09-10T00:21:15.714Z,96485.22
2022-09-10T00:23:45.627Z,96472.50
2022-09-10T00:26:17.585Z,96478.50
2022-09-10T00:28:45.762Z,96480.75
2022-09-10T00:31:15.556Z,96480.84
2022-09-10T00:33:44.839Z,96483.69
2022-09-10T00:36:17.057Z,96488.84
2022-09-10T00:38:45.123Z,96486.16
2022-09-10T00:41:14.367Z,96488.16
2022-09-10T00:43:51.065Z,96486.47
2022-09-10T00:46:28.166Z,96487.16
2022-09-10T00:48:58.233Z,96483.81
2022-09-10T00:51:30.096Z,96476.97
2022-09-10T00:53:59.235Z,96474.19
2022-09-10T00:56:28.671Z,96478.81
2022-09-10T00:58:57.359Z,96473.50
2022-09-10T01:01:26.987Z,96468.31
2022-09-10T01:03:55.914Z,96475.78
2022-09-10T01:06:24.324Z,96469.91
2022-09-10T01:08:52.490Z,96473.41
2022-09-10T01:11:37.802Z,96477.44
2022-09-10T01:14:20.642Z,96473.41
2022-09-10T01:17:03.459Z,96478.34
2022-09-10T01:19:58.609Z,96482.38
2022-09-10T01:22:38.290Z,96485.31
2022-09-10T01:25:16.449Z,96482.28
2022-09-10T01:27:47.602Z,96477.19
2022-09-10T01:30:20.561Z,96478.34
2022-09-10T01:33:04.680Z,96484.50
2022-09-10T01:35:43.136Z,96477.97
2022-09-10T01:38:15.190Z,96480.47
2022-09-10T01:40:44.652Z,96483.66
2022-09-10T01:43:18.280Z,96475.38
2022-09-10T01:46:06.313Z,96480.84
2022-09-10T01:49:01.559Z,96471.06
2022-09-10T01:51:46.415Z,96466.88
2022-09-10T01:54:28.467Z,96465.72
2022-09-10T01:57:10.214Z,96464.91
2022-09-10T01:59:46.593Z,96472.19
2022-09-10T02:02:21.610Z,96466.69
2022-09-10T02:04:51.455Z,96464.22
2022-09-10T02:07:23.798Z,96459.03
2022-09-10T02:09:54.809Z,96459.03
2022-09-10T02:12:24.817Z,96456.69
2022-09-10T02:15:15.079Z,96462.97
2022-09-10T02:17:52.342Z,96459.03
2022-09-10T02:20:22.107Z,96464.22
2022-09-10T02:22:59.146Z,96463.53
2022-09-10T02:25:31.757Z,96461.00
2022-09-10T02:27:59.690Z,96459.84
2022-09-10T02:30:29.252Z,96459.72
2022-09-10T02:32:57.182Z,96454.25
2022-09-10T02:35:24.963Z,96450.91
2022-09-10T02:37:53.427Z,96457.06
2022-09-10T02:40:21.214Z,96454.72
2022-09-10T02:42:49.251Z,96462.38
2022-09-10T02:45:22.606Z,96451.59
2022-09-10T02:47:51.994Z,96459.28
2022-09-10T02:50:20.237Z,96453.72
2022-09-10T02:52:50.306Z,96450.75
2022-09-10T02:55:19.344Z,96464.03
2022-09-10T02:57:47.636Z,96453.41
2022-09-10T03:00:15.738Z,96454.41
2022-09-10T03:02:43.752Z,96457.06
2022-09-10T03:05:15.336Z,96454.53
2022-09-10T03:07:43.781Z,96453.72
2022-09-10T03:10:11.697Z,96449.53
2022-09-10T03:12:40.763Z,96442.38
2022-09-10T03:15:09.748Z,96443.91
2022-09-10T03:17:37.561Z,96438.91
2022-09-10T03:20:06.362Z,96450.38
2022-09-10T03:22:35.529Z,96443.38
2022-09-10T03:25:03.334Z,96444.75
2022-09-10T03:27:31.209Z,96443.38
2022-09-10T03:30:00.390Z,96445.34
2022-09-10T03:32:33.194Z,96443.38
2022-09-10T03:35:01.049Z,96442.31
2022-09-10T03:37:28.876Z,96436.81
2022-09-10T03:39:58.993Z,96437.38
2022-09-10T03:42:27.079Z,96452.78
2022-09-10T03:44:55.575Z,96445.66
2022-09-10T03:47:24.003Z,96441.19
2022-09-10T03:49:51.799Z,96446.34
2022-09-10T03:52:22.642Z,96449.69
2022-09-10T03:54:51.741Z,96440.19
2022-09-10T03:57:22.071Z,96438.38
2022-09-10T03:59:50.501Z,96445.66
2022-09-10T04:02:19.383Z,96437.50
2022-09-10T04:04:47.966Z,96441.63
2022-09-10T04:07:16.319Z,96443.47
2022-09-10T04:09:44.159Z,96440.63
2022-09-10T04:12:13.282Z,96438.97
2022-09-10T04:14:45.336Z,96433.09
2022-09-10T04:17:14.509Z,96436.75
2022-09-10T04:19:43.074Z,96436.22
2022-09-10T04:22:16.599Z,96436.53
2022-09-10T04:24:44.708Z,96437.66
2022-09-10T04:27:12.586Z,96443.53
2022-09-10T04:29:42.989Z,96431.75
2022-09-10T04:32:10.867Z,96442.84
2022-09-10T04:34:38.742Z,96448.69
2022-09-10T04:37:07.535Z,96453.31
2022-09-10T04:39:35.967Z,96449.13
2022-09-10T04:42:06.845Z,96449.28
2022-09-10T04:44:35.043Z,96458.94
2022-09-10T04:47:04.794Z,96462.41
2022-09-10T04:49:34.536Z,96469.25
2022-09-10T04:52:02.995Z,96469.13
2022-09-10T04:54:31.094Z,96468.97
2022-09-10T04:56:59.947Z,96472.47
2022-09-10T04:59:29.594Z,96466.47
2022-09-10T05:01:57.722Z,96479.63
2022-09-10T05:04:27.331Z,96470.13
2022-09-10T05:06:59.453Z,96479.44
2022-09-10T05:09:31.153Z,96477.09
2022-09-10T05:12:01.042Z,96482.09
2022-09-10T05:14:29.322Z,96474.13
2022-09-10T05:16:57.669Z,96480.97
2022-09-10T05:19:26.894Z,96472.03
2022-09-10T05:22:03.039Z,96467.00
2022-09-10T05:24:34.187Z,96476.34
2022-09-10T05:27:04.617Z,96476.34
2022-09-10T05:29:32.450Z,96478.31
2022-09-10T05:32:00.381Z,96478.16
2022-09-10T05:34:29.574Z,96476.50
2022-09-10T05:36:59.666Z,96480.50
2022-09-10T05:39:27.591Z,96479.00
2022-09-10T05:41:55.852Z,96479.56
2022-09-10T05:44:24.650Z,96481.50
2022-09-10T05:46:53.305Z,96482.91
2022-09-10T05:49:22.083Z,96474.75
2022-09-10T05:51:51.307Z,96483.88
2022-09-10T05:54:19.875Z,96487.09
2022-09-10T05:56:47.695Z,96492.22
2022-09-10T05:59:15.614Z,96490.13
2022-09-10T06:01:51.331Z,96486.47
2022-09-10T06:04:22.025Z,96488.28
2022-09-10T06:06:51.391Z,96482.84
2022-09-10T06:09:19.767Z,96494.31
2022-09-10T06:11:57.740Z,96490.63
2022-09-10T06:14:25.726Z,96496.50
2022-09-10T06:16:56.557Z,96500.69
2022-09-10T06:19:26.761Z,96499.88
2022-09-10T06:21:57.782Z,96507.16
2022-09-10T06:24:26.533Z,96502.91
2022-09-10T06:26:57.633Z,96510.06
2022-09-10T06:29:29.380Z,96514.38
2022-09-10T06:31:59.201Z,96514.91
2022-09-10T06:34:27.034Z,96512.78
2022-09-10T06:36:55.222Z,96511.13
2022-09-10T06:39:25.001Z,96509.00
2022-09-10T06:41:56.998Z,96507.59
2022-09-10T06:44:44.182Z,96514.56
2022-09-10T06:48:25.365Z,96509.78
2022-09-10T06:50:22.150Z,96510.16
2022-09-10T06:52:51.529Z,96512.81
2022-09-10T06:55:23.350Z,96516.41
2022-09-10T06:57:51.299Z,96521.28
2022-09-10T07:00:19.367Z,96517.47
2022-09-10T07:02:53.148Z,96514.50
2022-09-10T07:05:22.369Z,96516.16
2022-09-10T07:07:50.201Z,96517.69
2022-09-10T07:10:18.524Z,96528.41
2022-09-10T07:12:47.712Z,96525.75
2022-09-10T07:15:15.634Z,96529.91
2022-09-10T07:17:43.447Z,96530.53
2022-09-10T07:20:13.049Z,96532.22
2022-09-10T07:22:48.339Z,96534.56
2022-09-10T07:25:19.622Z,96543.78
2022-09-10T07:27:55.227Z,96545.59
2022-09-10T07:30:24.426Z,96548.25
2022-09-10T07:32:53.239Z,96552.28
2022-09-10T07:35:26.424Z,96550.63
2022-09-10T07:37:55.001Z,96561.28
2022-09-10T07:40:24.167Z,96554.56
2022-09-10T07:42:53.250Z,96559.44
2022-09-10T07:45:22.669Z,96568.63
2022-09-10T07:47:51.825Z,96565.72
2022-09-10T07:50:20.259Z,96572.34
2022-09-10T07:52:52.779Z,96562.00
2022-09-10T07:55:23.358Z,96566.09
2022-09-10T07:57:51.869Z,96569.56
2022-09-10T08:00:21.987Z,96565.28
2022-09-10T08:02:55.747Z,96572.75
2022-09-10T08:05:24.588Z,96576.84
2022-09-10T08:07:54.913Z,96560.19
2022-09-10T08:10:25.858Z,96563.41
2022-09-10T08:12:53.994Z,96568.59
2022-09-10T08:15:26.744Z,96564.97
2022-09-10T08:17:55.685Z,96571.34
2022-09-10T08:20:25.139Z,96575.06
2022-09-10T08:22:53.776Z,96573.78
2022-09-10T08:25:22.355Z,96577.00
2022-09-10T08:27:51.050Z,96568.47
2022-09-10T08:30:19.081Z,96567.16
2022-09-10T08:32:49.044Z,96570.16
2022-09-10T08:35:22.219Z,96577.19
2022-09-10T08:37:51.192Z,96576.19
2022-09-10T08:40:19.393Z,96577.06
2022-09-10T08:42:50.557Z,96579.53
2022-09-10T08:45:23.555Z,96583.41
2022-09-10T08:47:59.571Z,96587.09
2022-09-10T08:50:37.477Z,96589.09
2022-09-10T08:53:25.904Z,96590.94
2022-09-10T08:55:57.933Z,96593.94
2022-09-10T08:58:30.871Z,96595.63
2022-09-10T09:01:03.250Z,96591.13
2022-09-10T09:03:38.841Z,96600.13
2022-09-10T09:06:13.013Z,96597.63
2022-09-10T09:08:48.476Z,96599.63
2022-09-10T09:11:36.152Z,96603.97
2022-09-10T09:14:21.113Z,96604.63
2022-09-10T09:17:05.972Z,96605.13
2022-09-10T09:19:45.717Z,96606.28
2022-09-10T09:22:19.493Z,96600.13
2022-09-10T09:24:57.407Z,96603.66
2022-09-10T09:27:28.343Z,96603.31
2022-09-10T09:30:02.517Z,96609.16
2022-09-10T09:32:37.752Z,96607.84
2022-09-10T09:35:18.913Z,96601.31
2022-09-10T09:37:48.697Z,96604.31
2022-09-10T09:40:27.620Z,96600.66
2022-09-10T09:43:00.203Z,96600.31
2022-09-10T09:45:37.523Z,96598.81
2022-09-10T09:48:06.641Z,96606.97
2022-09-10T09:50:40.101Z,96603.31
2022-09-10T09:53:08.076Z,96604.16
2022-09-10T09:55:40.675Z,96598.66
2022-09-10T09:58:31.144Z,96596.13
2022-09-10T10:01:15.470Z,96598.31
2022-09-10T10:03:58.606Z,96598.81
2022-09-10T10:06:31.044Z,96592.13
2022-09-10T10:09:05.527Z,96594.13
2022-09-10T10:11:56.404Z,96589.97
2022-09-10T10:14:38.189Z,96588.47
2022-09-10T10:17:34.696Z,96590.63
2022-09-10T10:20:09.132Z,96592.66
2022-09-10T10:22:40.960Z,96586.13
2022-09-10T10:25:36.564Z,96585.63
2022-09-10T10:28:05.208Z,96588.66
2022-09-10T10:30:33.308Z,96587.47
2022-09-10T10:33:03.401Z,96579.63
2022-09-10T10:35:47.614Z,96572.91
2022-09-10T10:38:30.900Z,96569.72
2022-09-10T10:41:29.737Z,96568.22
2022-09-10T10:44:12.749Z,96570.00
2022-09-10T10:46:49.767Z,96570.84
2022-09-10T10:49:26.914Z,96571.19
2022-09-10T10:52:06.919Z,96575.41
2022-09-10T10:54:57.404Z,96571.09
2022-09-10T10:57:34.496Z,96560.84
2022-09-10T11:00:07.539Z,96563.03
2022-09-10T11:02:45.039Z,96570.41
2022-09-10T11:05:31.637Z,96565.22
2022-09-10T11:08:02.798Z,96564.53
2022-09-10T11:10:38.037Z,96559.50
2022-09-10T11:13:10.418Z,96558.84
2022-09-10T11:15:45.640Z,96553.97
2022-09-10T11:18:17.691Z,96554.13
2022-09-10T11:20:50.349Z,96550.03
2022-09-10T11:23:27.856Z,96549.66
2022-09-10T11:26:03.915Z,96541.13
2022-09-10T11:28:37.027Z,96542.94
2022-09-10T11:31:12.062Z,96541.63
2022-09-10T11:33:49.395Z,96550.97
2022-09-10T11:36:26.325Z,96548.09
2022-09-10T11:39:06.068Z,96548.47
2022-09-10T11:41:42.285Z,96560.84
2022-09-10T11:44:28.330Z,96564.84
2022-09-10T11:47:02.935Z,96545.13
2022-09-10T11:49:42.342Z,96542.09
2022-09-10T11:52:12.538Z,96552.16
2022-09-10T11:54:42.304Z,96547.81
2022-09-10T11:57:22.177Z,96547.44
2022-09-10T12:00:05.747Z,96543.63
2022-09-10T12:03:11.207Z,96551.84
2022-09-10T12:05:53.325Z,96528.00
2022-09-10T12:08:34.095Z,96536.31
2022-09-10T12:11:14.334Z,96542.22
2022-09-10T12:13:45.675Z,96541.56
2022-09-10T12:16:22.311Z,96549.06
2022-09-10T12:18:53.539Z,96551.22
2022-09-10T12:21:30.212Z,96544.66
2022-09-10T12:23:58.830Z,96544.53
2022-09-10T12:26:27.391Z,96544.06
2022-09-10T12:29:02.507Z,96543.78
2022-09-10T12:32:09.471Z,96540.16
2022-09-10T12:34:39.583Z,96538.38
2022-09-10T12:37:34.661Z,96536.06
2022-09-10T12:40:45.407Z,96538.69
2022-09-10T12:43:50.812Z,96536.72
2022-09-10T12:46:22.826Z,96536.91
2022-09-10T12:49:05.628Z,96533.72
2022-09-10T12:51:48.625Z,96534.78
2022-09-10T12:54:36.434Z,96536.13
2022-09-10T12:57:26.295Z,96530.47
2022-09-10T13:00:19.383Z,96515.41
2022-09-10T13:02:52.457Z,96529.81
2022-09-10T13:05:29.617Z,96530.41
2022-09-10T13:08:12.344Z,96530.41
2022-09-10T13:10:42.064Z,96529.91
2022-09-10T13:13:34.202Z,96528.78
2022-09-10T13:16:04.380Z,96525.25
2022-09-10T13:18:33.924Z,96527.44
2022-09-10T13:21:45.766Z,96530.34
2022-09-10T13:24:39.780Z,96522.31
2022-09-10T13:27:22.532Z,96526.50
2022-09-10T13:29:54.801Z,96532.34
2022-09-10T13:32:30.923Z,96527.00
2022-09-10T13:35:29.491Z,96526.63
2022-09-10T13:38:14.152Z,96525.34
2022-09-10T13:41:10.893Z,96527.50
2022-09-10T13:44:01.351Z,96527.00
2022-09-10T13:46:36.757Z,96529.09
2022-09-10T13:49:13.527Z,96525.63
2022-09-10T13:51:48.866Z,96537.66
2022-09-10T13:54:29.504Z,96528.13
2022-09-10T13:57:03.313Z,96532.09
2022-09-10T13:59:34.086Z,96542.47
2022-09-10T14:02:02.150Z,96534.09
2022-09-10T14:04:32.041Z,96537.44
2022-09-10T14:07:05.483Z,96528.72
2022-09-10T14:09:35.218Z,96534.41
2022-09-10T14:12:09.640Z,96527.88
2022-09-10T14:14:43.275Z,96529.75
2022-09-10T14:17:16.602Z,96537.44
2022-09-10T14:19:49.216Z,96526.94
2022-09-10T14:22:22.201Z,96528.75
2022-09-10T14:24:53.605Z,96519.44
2022-09-10T14:27:27.298Z,96528.28
2022-09-10T14:29:57.372Z,96526.44
2022-09-10T14:32:31.703Z,96521.75
2022-09-10T14:35:03.634Z,96526.06
2022-09-10T14:37:38.568Z,96518.66
2022-09-10T14:40:17.833Z,96510.31
2022-09-10T14:42:48.375Z,96508.13
2022-09-10T14:45:42.105Z,96510.09
2022-09-10T14:48:32.559Z,96503.94
2022-09-10T14:51:19.081Z,96515.09
2022-09-10T14:53:51.267Z,96511.91
2022-09-10T14:56:26.680Z,96513.75
2022-09-10T14:59:00.429Z,96505.53
2022-09-10T15:01:29.339Z,96514.28
2022-09-10T15:03:57.537Z,96512.94
2022-09-10T15:06:26.910Z,96514.81
2022-09-10T15:08:57.104Z,96514.69
2022-09-10T15:11:27.345Z,96517.88
2022-09-10T15:13:59.297Z,96518.72
2022-09-10T15:16:27.645Z,96515.53
2022-09-10T15:18:55.649Z,96515.53
2022-09-10T15:21:26.692Z,96521.59
2022-09-10T15:23:55.009Z,96520.09
2022-09-10T15:26:23.360Z,96524.78
2022-09-10T15:28:52.704Z,96524.44
2022-09-10T15:31:23.298Z,96522.28
2022-09-10T15:33:52.955Z,96539.00
2022-09-10T15:36:22.453Z,96541.00
2022-09-10T15:38:52.314Z,96551.53
2022-09-10T15:41:20.323Z,96555.56
2022-09-10T15:43:48.782Z,96554.06
2022-09-10T15:46:18.651Z,96548.38
2022-09-10T15:48:48.326Z,96542.03
2022-09-10T15:51:21.362Z,96556.22
2022-09-10T15:53:50.310Z,96557.56
2022-09-10T15:56:19.136Z,96555.22
2022-09-10T15:58:49.850Z,96560.56
2022-09-10T16:01:17.832Z,96574.88
2022-09-10T16:03:50.163Z,96576.59
2022-09-10T16:06:19.398Z,96581.06
2022-09-10T16:08:50.740Z,96574.00
2022-09-10T16:11:19.207Z,96567.66
2022-09-10T16:13:47.486Z,96565.25
2022-09-10T16:16:19.076Z,96563.19
2022-09-10T16:18:51.320Z,96568.56
2022-09-10T16:21:22.428Z,96561.91
2022-09-10T16:23:52.353Z,96564.72
2022-09-10T16:26:22.908Z,96566.91
2022-09-10T16:28:51.545Z,96564.03
2022-09-10T16:31:22.593Z,96580.25
2022-09-10T16:33:54.955Z,96566.91
2022-09-10T16:36:24.042Z,96560.06
2022-09-10T16:38:55.299Z,96565.38
2022-09-10T16:41:25.153Z,96560.72
2022-09-10T16:43:55.161Z,96566.91
2022-09-10T16:46:23.637Z,96571.75
2022-09-10T16:48:55.307Z,96566.91
2022-09-10T16:51:25.488Z,96566.06
2022-09-10T16:53:56.938Z,96567.53
2022-09-10T16:56:26.520Z,96559.84
2022-09-10T16:58:55.031Z,96562.19
2022-09-10T17:01:23.238Z,96566.97
2022-09-10T17:03:52.049Z,96572.38
2022-09-10T17:06:23.371Z,96563.69
2022-09-10T17:08:52.150Z,96565.38
2022-09-10T17:11:20.881Z,96570.38
2022-09-10T17:13:48.769Z,96568.38
2022-09-10T17:16:18.168Z,96569.38
2022-09-10T17:18:46.260Z,96578.19
2022-09-10T17:21:15.298Z,96583.34
2022-09-10T17:23:46.538Z,96586.19
2022-09-10T17:26:14.575Z,96593.38
2022-09-10T17:28:43.041Z,96599.84
2022-09-10T17:31:11.068Z,96596.66
2022-09-10T17:33:38.986Z,96602.19
2022-09-10T17:36:07.310Z,96605.34
2022-09-10T17:38:35.718Z,96611.00
2022-09-10T17:41:05.950Z,96614.16
2022-09-10T17:43:37.455Z,96611.09
2022-09-10T17:46:06.033Z,96613.94
2022-09-10T17:48:34.570Z,96614.09
2022-09-10T17:51:03.023Z,96608.53
2022-09-10T17:53:31.684Z,96617.41
2022-09-10T17:56:05.112Z,96616.03
2022-09-10T17:58:33.611Z,96616.50
2022-09-10T18:01:03.028Z,96619.69
2022-09-10T18:03:31.671Z,96627.50
2022-09-10T18:06:04.330Z,96627.66
2022-09-10T18:08:32.962Z,96636.31
2022-09-10T18:11:07.481Z,96624.28
2022-09-10T18:13:36.461Z,96627.97
2022-09-10T18:16:09.134Z,96633.06
2022-09-10T18:18:37.921Z,96634.75
2022-09-10T18:21:16.440Z,96641.75
2022-09-10T18:23:44.565Z,96644.44
2022-09-10T18:26:15.699Z,96640.97
2022-09-10T18:28:44.151Z,96651.94
2022-09-10T18:31:12.452Z,96644.94
2022-09-10T18:33:42.099Z,96644.94
2022-09-10T18:36:14.880Z,96646.41
2022-09-10T18:38:43.746Z,96652.03
2022-09-10T18:41:21.295Z,96643.03
2022-09-10T18:43:50.865Z,96655.84
2022-09-10T18:46:20.142Z,96656.00
2022-09-10T18:48:48.549Z,96654.34
2022-09-10T18:51:18.349Z,96664.53
2022-09-10T18:53:46.600Z,96668.88
2022-09-10T18:56:16.456Z,96661.47
2022-09-10T18:58:49.653Z,96665.97
2022-09-10T19:01:18.794Z,96667.50
2022-09-10T19:03:48.706Z,96664.44
2022-09-10T19:06:18.752Z,96671.75
2022-09-10T19:08:52.628Z,96670.94
2022-09-10T19:11:22.925Z,96668.41
2022-09-10T19:13:54.343Z,96672.75
2022-09-10T19:16:25.557Z,96678.78
2022-09-10T19:18:54.999Z,96674.03
2022-09-10T19:21:24.124Z,96676.41
2022-09-10T19:23:56.230Z,96669.56
2022-09-10T19:26:27.276Z,96674.50
2022-09-10T19:28:57.327Z,96679.00
2022-09-10T19:31:26.782Z,96685.53
2022-09-10T19:33:56.983Z,96677.72
2022-09-10T19:36:27.494Z,96677.16
2022-09-10T19:38:55.540Z,96686.16
2022-09-10T19:41:25.522Z,96678.16
2022-09-10T19:43:56.363Z,96672.97
2022-09-10T19:46:28.312Z,96682.81
2022-09-10T19:48:59.325Z,96678.06
2022-09-10T19:51:28.399Z,96681.44
2022-09-10T19:53:56.759Z,96676.88
2022-09-10T19:56:26.637Z,96679.22
2022-09-10T19:58:57.357Z,96678.16
2022-09-10T20:01:27.438Z,96679.81
2022-09-10T20:03:57.197Z,96681.50
2022-09-10T20:06:26.372Z,96676.50
2022-09-10T20:08:54.750Z,96673.28
2022-09-10T20:11:24.040Z,96681.13
2022-09-10T20:13:55.672Z,96670.47
2022-09-10T20:16:26.212Z,96684.75
2022-09-10T20:18:54.375Z,96679.28
2022-09-10T20:21:24.427Z,96686.72
2022-09-10T20:23:55.660Z,96687.72
2022-09-10T20:26:25.559Z,96680.56
2022-09-10T20:28:55.717Z,96678.66
2022-09-10T20:31:27.425Z,96677.84
2022-09-10T20:33:56.496Z,96679.94
2022-09-10T20:36:25.493Z,96675.16
2022-09-10T20:38:54.578Z,96674.94
2022-09-10T20:41:23.543Z,96677.72
2022-09-10T20:43:52.892Z,96678.19
2022-09-10T20:46:23.560Z,96674.81
2022-09-10T20:48:53.744Z,96677.78
2022-09-10T20:51:22.030Z,96681.44
2022-09-10T20:53:50.012Z,96688.06
2022-09-10T20:56:20.153Z,96683.16
2022-09-10T20:58:48.796Z,96686.66
2022-09-10T21:01:19.171Z,96688.50
2022-09-10T21:03:49.271Z,96684.31
2022-09-10T21:06:20.583Z,96686.84
2022-09-10T21:08:49.543Z,96687.66
2022-09-10T21:11:19.581Z,96686.97
2022-09-10T21:13:49.740Z,96683.63
2022-09-10T21:16:19.999Z,96683.31
2022-09-10T21:18:54.169Z,96684.31
2022-09-10T21:21:26.960Z,96682.34
2022-09-10T21:23:57.205Z,96687.84
2022-09-10T21:26:26.814Z,96689.25
2022-09-10T21:28:57.075Z,96687.94
2022-09-10T21:31:25.746Z,96689.50
2022-09-10T21:33:57.518Z,96689.25
2022-09-10T21:36:31.120Z,96703.94
2022-09-10T21:39:00.539Z,96701.69
2022-09-10T21:41:31.776Z,96699.91
2022-09-10T21:44:01.250Z,96689.13
2022-09-10T21:46:29.489Z,96702.69
2022-09-10T21:48:57.556Z,96709.69
2022-09-10T21:51:25.839Z,96706.31
2022-09-10T21:53:59.216Z,96701.00
2022-09-10T21:56:29.540Z,96704.66
2022-09-10T21:58:59.956Z,96703.44
2022-09-10T22:01:30.654Z,96697.13
2022-09-10T22:04:00.722Z,96700.47
2022-09-10T22:06:30.579Z,96702.00
2022-09-10T22:09:01.391Z,96704.25
2022-09-10T22:11:31.254Z,96701.31
2022-09-10T22:14:01.140Z,96706.50
2022-09-10T22:16:31.124Z,96699.25
2022-09-10T22:19:01.389Z,96703.00
2022-09-10T22:21:30.262Z,96707.22
2022-09-10T22:23:59.944Z,96703.56
2022-09-10T22:26:29.230Z,96707.06
2022-09-10T22:28:59.442Z,96703.00
2022-09-10T22:31:29.372Z,96708.19
2022-09-10T22:33:59.256Z,96706.53
2022-09-10T22:36:31.409Z,96700.50
2022-09-10T22:39:02.276Z,96712.00
2022-09-10T22:41:33.090Z,96717.44
2022-09-10T22:44:01.301Z,96714.25
2022-09-10T22:46:30.036Z,96710.16
2022-09-10T22:48:58.461Z,96710.59
2022-09-10T22:51:28.460Z,96713.13
2022-09-10T22:53:58.400Z,96719.41
2022-09-10T22:56:28.926Z,96718.44
2022-09-10T22:58:58.822Z,96715.50
2022-09-10T23:01:28.968Z,96722.06
2022-09-10T23:03:58.068Z,96717.03
2022-09-10T23:06:28.377Z,96715.91
2022-09-10T23:08:58.550Z,96726.28
2022-09-10T23:11:29.197Z,96717.22
2022-09-10T23:13:59.232Z,96724.06
2022-09-10T23:16:29.364Z,96726.28
2022-09-10T23:18:59.291Z,96729.38
2022-09-10T23:21:29.167Z,96718.16
2022-09-10T23:23:58.948Z,96718.16
2022-09-10T23:26:29.696Z,96729.66
2022-09-10T23:28:57.720Z,96722.38
2022-09-10T23:31:27.518Z,96732.88
2022-09-10T23:33:57.341Z,96720.28
2022-09-10T23:36:26.217Z,96728.25
2022-09-10T23:38:54.247Z,96725.28
2022-09-10T23:41:22.257Z,96722.75
2022-09-10T23:43:51.751Z,96728.94
2022-09-10T23:46:20.012Z,96718.31
2022-09-10T23:48:49.324Z,96725.03
2022-09-10T23:51:19.229Z,96726.41
2022-09-10T23:53:48.747Z,96718.31
2022-09-10T23:56:18.480Z,96715.78
2022-09-10T23:58:47.639Z,96723.91
